sensor_id;sensor_type;location;lat;lon;timestamp;pressure;altitude;pressure_sealevel;temperature;humidity
29569;BME280;16501;51.462;14.346;2023-05-09T00:00:29;101038.28;;;8.78;66.33
29569;BME280;16501;51.462;14.346;2023-05-09T00:02:54;101033.22;;;8.73;66.78
29569;BME280;16501;51.462;14.346;2023-05-09T00:05:20;101031.97;;;8.74;67.00
29569;BME280;16501;51.462;14.346;2023-05-09T00:07:48;101048.06;;;8.70;67.47
29569;BME280;16501;51.462;14.346;2023-05-09T00:10:13;101026.59;;;8.67;67.50
29569;BME280;16501;51.462;14.346;2023-05-09T00:12:39;101020.22;;;8.66;68.00
29569;BME280;16501;51.462;14.346;2023-05-09T00:15:08;101024.69;;;8.64;67.67
29569;BME280;16501;51.462;14.346;2023-05-09T00:17:34;101020.28;;;8.50;68.45
29569;BME280;16501;51.462;14.346;2023-05-09T00:20:01;101037.72;;;8.54;68.63
29569;BME280;16501;51.462;14.346;2023-05-09T00:22:27;101020.16;;;8.37;68.54
29569;BME280;16501;51.462;14.346;2023-05-09T00:24:52;101029.78;;;8.53;68.50
29569;BME280;16501;51.462;14.346;2023-05-09T00:27:18;101032.75;;;8.45;68.12
29569;BME280;16501;51.462;14.346;2023-05-09T00:29:43;101016.94;;;8.39;68.14
29569;BME280;16501;51.462;14.346;2023-05-09T00:32:08;101024.72;;;8.47;67.65
29569;BME280;16501;51.462;14.346;2023-05-09T00:34:39;101025.59;;;8.44;67.59
29569;BME280;16501;51.462;14.346;2023-05-09T00:37:05;100992.69;;;8.19;66.91
29569;BME280;16501;51.462;14.346;2023-05-09T00:39:30;100991.91;;;8.19;67.37
29569;BME280;16501;51.462;14.346;2023-05-09T00:41:55;101026.09;;;8.39;67.22
29569;BME280;16501;51.462;14.346;2023-05-09T00:44:21;101038.50;;;8.38;66.77
29569;BME280;16501;51.462;14.346;2023-05-09T00:46:46;101015.72;;;8.23;67.27
29569;BME280;16501;51.462;14.346;2023-05-09T00:49:17;101019.13;;;8.31;67.33
29569;BME280;16501;51.462;14.346;2023-05-09T00:51:42;100999.94;;;8.17;66.96
29569;BME280;16501;51.462;14.346;2023-05-09T00:54:08;101008.94;;;8.08;67.54
29569;BME280;16501;51.462;14.346;2023-05-09T00:56:33;101020.72;;;8.16;67.83
29569;BME280;16501;51.462;14.346;2023-05-09T00:58:59;101018.28;;;8.18;67.93
29569;BME280;16501;51.462;14.346;2023-05-09T01:01:24;100996.38;;;8.00;68.27
29569;BME280;16501;51.462;14.346;2023-05-09T01:03:50;101014.16;;;8.06;68.17
29569;BME280;16501;51.462;14.346;2023-05-09T01:06:23;101007.47;;;8.03;68.28
29569;BME280;16501;51.462;14.346;2023-05-09T01:09:07;100982.22;;;7.90;69.21
29569;BME280;16501;51.462;14.346;2023-05-09T01:11:48;100999.63;;;7.98;68.27
29569;BME280;16501;51.462;14.346;2023-05-09T01:14:36;100997.34;;;7.93;68.52
29569;BME280;16501;51.462;14.346;2023-05-09T01:19:58;100988.88;;;7.80;68.57
29569;BME280;16501;51.462;14.346;2023-05-09T01:22:31;100984.69;;;7.72;69.40
29569;BME280;16501;51.462;14.346;2023-05-09T01:25:18;100967.16;;;7.55;69.12
29569;BME280;16501;51.462;14.346;2023-05-09T01:30:50;100968.72;;;7.56;69.39
29569;BME280;16501;51.462;14.346;2023-05-09T01:33:18;100990.03;;;7.66;69.97
29569;BME280;16501;51.462;14.346;2023-05-09T01:35:47;100983.97;;;7.68;69.71
29569;BME280;16501;51.462;14.346;2023-05-09T01:38:18;100978.66;;;7.57;69.46
29569;BME280;16501;51.462;14.346;2023-05-09T01:40:46;101000.28;;;7.53;70.38
29569;BME280;16501;51.462;14.346;2023-05-09T01:43:13;100969.84;;;7.42;70.43
29569;BME280;16501;51.462;14.346;2023-05-09T01:45:41;100940.34;;;7.25;70.36
29569;BME280;16501;51.462;14.346;2023-05-09T01:48:08;100976.38;;;7.52;70.78
29569;BME280;16501;51.462;14.346;2023-05-09T01:50:35;100964.22;;;7.26;70.84
29569;BME280;16501;51.462;14.346;2023-05-09T01:53:02;100973.75;;;7.45;70.72
29569;BME280;16501;51.462;14.346;2023-05-09T01:55:31;100952.47;;;7.34;70.35
29569;BME280;16501;51.462;14.346;2023-05-09T01:58:04;100970.97;;;7.45;70.68
29569;BME280;16501;51.462;14.346;2023-05-09T02:00:32;100960.13;;;7.30;70.64
29569;BME280;16501;51.462;14.346;2023-05-09T02:02:58;100969.44;;;7.24;71.10
29569;BME280;16501;51.462;14.346;2023-05-09T02:05:26;100959.16;;;7.21;71.34
29569;BME280;16501;51.462;14.346;2023-05-09T02:07:53;100953.81;;;7.10;70.84
29569;BME280;16501;51.462;14.346;2023-05-09T02:10:21;100966.56;;;7.11;71.07
29569;BME280;16501;51.462;14.346;2023-05-09T02:12:46;100945.41;;;6.93;71.07
29569;BME280;16501;51.462;14.346;2023-05-09T02:15:11;100958.97;;;6.91;71.48
29569;BME280;16501;51.462;14.346;2023-05-09T02:17:37;100964.78;;;7.01;71.73
29569;BME280;16501;51.462;14.346;2023-05-09T02:20:03;100967.72;;;6.93;72.25
29569;BME280;16501;51.462;14.346;2023-05-09T02:22:29;100950.78;;;6.84;72.06
29569;BME280;16501;51.462;14.346;2023-05-09T02:24:55;100924.13;;;6.63;72.39
29569;BME280;16501;51.462;14.346;2023-05-09T02:27:21;100960.78;;;6.82;72.37
29569;BME280;16501;51.462;14.346;2023-05-09T02:29:49;100953.78;;;6.73;72.53
29569;BME280;16501;51.462;14.346;2023-05-09T02:32:20;100954.63;;;6.70;73.21
29569;BME280;16501;51.462;14.346;2023-05-09T02:34:47;100965.84;;;6.67;73.40
29569;BME280;16501;51.462;14.346;2023-05-09T02:37:14;100924.84;;;6.47;73.46
29569;BME280;16501;51.462;14.346;2023-05-09T02:39:40;100965.09;;;6.66;73.91
29569;BME280;16501;51.462;14.346;2023-05-09T02:42:08;100952.16;;;6.56;73.43
29569;BME280;16501;51.462;14.346;2023-05-09T02:44:33;100922.22;;;6.40;73.71
29569;BME280;16501;51.462;14.346;2023-05-09T02:46:59;100952.50;;;6.58;73.99
29569;BME280;16501;51.462;14.346;2023-05-09T02:49:25;100926.69;;;6.34;73.18
29569;BME280;16501;51.462;14.346;2023-05-09T02:51:50;100956.59;;;6.53;73.99
29569;BME280;16501;51.462;14.346;2023-05-09T02:54:15;100973.22;;;6.57;74.58
29569;BME280;16501;51.462;14.346;2023-05-09T02:56:42;100967.25;;;6.58;73.81
29569;BME280;16501;51.462;14.346;2023-05-09T02:59:07;100960.66;;;6.49;74.42
29569;BME280;16501;51.462;14.346;2023-05-09T03:01:32;100961.84;;;6.48;73.80
29569;BME280;16501;51.462;14.346;2023-05-09T03:03:58;100955.16;;;6.45;73.47
29569;BME280;16501;51.462;14.346;2023-05-09T03:06:23;100945.69;;;6.39;74.12
29569;BME280;16501;51.462;14.346;2023-05-09T03:08:48;100951.28;;;6.39;73.51
29569;BME280;16501;51.462;14.346;2023-05-09T03:11:13;100963.38;;;6.52;73.73
29569;BME280;16501;51.462;14.346;2023-05-09T03:13:38;100962.16;;;6.53;73.01
29569;BME280;16501;51.462;14.346;2023-05-09T03:16:04;100937.84;;;6.34;73.04
29569;BME280;16501;51.462;14.346;2023-05-09T03:18:30;100954.28;;;6.48;73.53
29569;BME280;16501;51.462;14.346;2023-05-09T03:20:55;100932.41;;;6.27;72.55
29569;BME280;16501;51.462;14.346;2023-05-09T03:23:20;100927.41;;;6.18;73.44
29569;BME280;16501;51.462;14.346;2023-05-09T03:25:45;100951.19;;;6.42;72.98
29569;BME280;16501;51.462;14.346;2023-05-09T03:28:11;100945.00;;;6.35;73.76
29569;BME280;16501;51.462;14.346;2023-05-09T03:30:36;100936.06;;;6.23;73.49
29569;BME280;16501;51.462;14.346;2023-05-09T03:33:01;100943.53;;;6.27;74.42
29569;BME280;16501;51.462;14.346;2023-05-09T03:35:28;100943.41;;;6.34;74.28
29569;BME280;16501;51.462;14.346;2023-05-09T03:37:55;100933.31;;;6.20;74.23
29569;BME280;16501;51.462;14.346;2023-05-09T03:40:20;100924.06;;;6.27;75.37
29569;BME280;16501;51.462;14.346;2023-05-09T03:42:45;100959.69;;;6.35;75.67
29569;BME280;16501;51.462;14.346;2023-05-09T03:45:10;100934.34;;;6.30;76.57
29569;BME280;16501;51.462;14.346;2023-05-09T03:47:36;100939.50;;;6.31;78.24
29569;BME280;16501;51.462;14.346;2023-05-09T03:50:01;100926.84;;;6.27;80.09
29569;BME280;16501;51.462;14.346;2023-05-09T03:52:26;100920.91;;;6.04;80.37
29569;BME280;16501;51.462;14.346;2023-05-09T03:54:52;100946.75;;;6.25;81.01
29569;BME280;16501;51.462;14.346;2023-05-09T03:57:17;100939.69;;;6.20;81.28
29569;BME280;16501;51.462;14.346;2023-05-09T03:59:42;100914.22;;;5.98;81.14
29569;BME280;16501;51.462;14.346;2023-05-09T04:02:07;100926.16;;;5.99;81.01
29569;BME280;16501;51.462;14.346;2023-05-09T04:04:33;100942.22;;;6.11;81.19
29569;BME280;16501;51.462;14.346;2023-05-09T04:06:58;100930.88;;;6.02;82.06
29569;BME280;16501;51.462;14.346;2023-05-09T04:09:23;100945.97;;;6.04;83.50
29569;BME280;16501;51.462;14.346;2023-05-09T04:11:49;100950.66;;;6.08;83.19
29569;BME280;16501;51.462;14.346;2023-05-09T04:14:14;100949.66;;;5.98;83.33
29569;BME280;16501;51.462;14.346;2023-05-09T04:16:39;100943.22;;;6.01;84.50
29569;BME280;16501;51.462;14.346;2023-05-09T04:19:05;100927.38;;;5.98;83.45
29569;BME280;16501;51.462;14.346;2023-05-09T04:21:31;100944.53;;;6.16;82.81
29569;BME280;16501;51.462;14.346;2023-05-09T04:23:56;100946.13;;;6.17;81.57
29569;BME280;16501;51.462;14.346;2023-05-09T04:26:22;100940.41;;;6.25;82.25
29569;BME280;16501;51.462;14.346;2023-05-09T04:28:48;100939.56;;;6.28;82.04
29569;BME280;16501;51.462;14.346;2023-05-09T04:31:13;100934.34;;;6.30;81.15
29569;BME280;16501;51.462;14.346;2023-05-09T04:33:39;100939.41;;;6.35;80.75
29569;BME280;16501;51.462;14.346;2023-05-09T04:36:04;100954.44;;;6.41;79.59
29569;BME280;16501;51.462;14.346;2023-05-09T04:38:30;100948.59;;;6.55;80.46
29569;BME280;16501;51.462;14.346;2023-05-09T04:40:55;100933.50;;;6.53;80.93
29569;BME280;16501;51.462;14.346;2023-05-09T04:43:20;100918.44;;;6.50;79.26
29569;BME280;16501;51.462;14.346;2023-05-09T04:45:46;100956.16;;;6.75;78.30
29569;BME280;16501;51.462;14.346;2023-05-09T04:48:11;100959.06;;;6.88;77.72
29569;BME280;16501;51.462;14.346;2023-05-09T04:50:37;100952.34;;;6.85;78.57
29569;BME280;16501;51.462;14.346;2023-05-09T04:53:02;100958.13;;;6.94;78.98
29569;BME280;16501;51.462;14.346;2023-05-09T04:55:27;100953.97;;;7.03;77.53
29569;BME280;16501;51.462;14.346;2023-05-09T04:57:52;100932.53;;;6.99;74.60
29569;BME280;16501;51.462;14.346;2023-05-09T05:00:18;100955.59;;;7.20;75.57
29569;BME280;16501;51.462;14.346;2023-05-09T05:02:43;100954.28;;;7.25;76.03
29569;BME280;16501;51.462;14.346;2023-05-09T05:05:09;100940.19;;;7.32;77.79
29569;BME280;16501;51.462;14.346;2023-05-09T05:07:34;100957.19;;;7.54;79.32
29569;BME280;16501;51.462;14.346;2023-05-09T05:09:59;100947.25;;;7.53;78.79
29569;BME280;16501;51.462;14.346;2023-05-09T05:12:24;100955.63;;;7.69;78.32
29569;BME280;16501;51.462;14.346;2023-05-09T05:14:50;100946.28;;;7.76;77.86
29569;BME280;16501;51.462;14.346;2023-05-09T05:17:15;100956.31;;;7.90;76.67
29569;BME280;16501;51.462;14.346;2023-05-09T05:19:42;100936.88;;;7.86;73.26
29569;BME280;16501;51.462;14.346;2023-05-09T05:22:07;100933.22;;;7.89;74.62
29569;BME280;16501;51.462;14.346;2023-05-09T05:24:32;100920.91;;;7.87;72.71
29569;BME280;16501;51.462;14.346;2023-05-09T05:26:57;100951.75;;;8.12;71.74
29569;BME280;16501;51.462;14.346;2023-05-09T05:29:23;100944.25;;;8.09;71.08
29569;BME280;16501;51.462;14.346;2023-05-09T05:31:48;100926.97;;;8.15;73.15
29569;BME280;16501;51.462;14.346;2023-05-09T05:34:13;100952.22;;;8.40;74.70
29569;BME280;16501;51.462;14.346;2023-05-09T05:36:40;100925.88;;;8.25;71.07
29569;BME280;16501;51.462;14.346;2023-05-09T05:39:05;100940.72;;;8.38;71.94
29569;BME280;16501;51.462;14.346;2023-05-09T05:41:31;100936.53;;;8.46;70.57
29569;BME280;16501;51.462;14.346;2023-05-09T05:43:56;100942.91;;;8.60;68.36
29569;BME280;16501;51.462;14.346;2023-05-09T05:46:21;100942.72;;;8.67;68.44
29569;BME280;16501;51.462;14.346;2023-05-09T05:48:46;100934.19;;;8.58;67.45
29569;BME280;16501;51.462;14.346;2023-05-09T05:51:12;100924.06;;;8.64;66.71
29569;BME280;16501;51.462;14.346;2023-05-09T05:53:37;100931.09;;;8.68;66.84
29569;BME280;16501;51.462;14.346;2023-05-09T05:56:02;100925.50;;;8.68;65.27
29569;BME280;16501;51.462;14.346;2023-05-09T05:58:27;100918.59;;;8.73;64.11
29569;BME280;16501;51.462;14.346;2023-05-09T06:00:53;100912.00;;;8.80;64.26
29569;BME280;16501;51.462;14.346;2023-05-09T06:03:18;100919.19;;;8.94;65.08
29569;BME280;16501;51.462;14.346;2023-05-09T06:05:45;100916.63;;;8.99;63.08
29569;BME280;16501;51.462;14.346;2023-05-09T06:08:10;100901.97;;;8.95;63.74
29569;BME280;16501;51.462;14.346;2023-05-09T06:10:36;100913.59;;;9.06;62.58
29569;BME280;16501;51.462;14.346;2023-05-09T06:13:01;100927.38;;;9.27;62.34
29569;BME280;16501;51.462;14.346;2023-05-09T06:15:26;100922.53;;;9.40;62.72
29569;BME280;16501;51.462;14.346;2023-05-09T06:17:52;100918.19;;;9.39;61.61
29569;BME280;16501;51.462;14.346;2023-05-09T06:20:18;100927.13;;;9.59;61.83
29569;BME280;16501;51.462;14.346;2023-05-09T06:22:43;100925.53;;;9.71;62.15
29569;BME280;16501;51.462;14.346;2023-05-09T06:25:08;100909.06;;;9.73;60.90
29569;BME280;16501;51.462;14.346;2023-05-09T06:27:33;100907.34;;;9.89;62.07
29569;BME280;16501;51.462;14.346;2023-05-09T06:29:59;100924.13;;;10.02;60.68
29569;BME280;16501;51.462;14.346;2023-05-09T06:32:24;100892.84;;;10.03;61.38
29569;BME280;16501;51.462;14.346;2023-05-09T06:34:49;100902.53;;;10.24;61.91
29569;BME280;16501;51.462;14.346;2023-05-09T06:37:14;100905.53;;;10.30;58.31
29569;BME280;16501;51.462;14.346;2023-05-09T06:39:40;100891.44;;;10.21;57.78
29569;BME280;16501;51.462;14.346;2023-05-09T06:42:05;100895.53;;;10.42;57.95
29569;BME280;16501;51.462;14.346;2023-05-09T06:44:30;100868.41;;;10.38;58.38
29569;BME280;16501;51.462;14.346;2023-05-09T06:46:56;100890.47;;;10.59;57.46
29569;BME280;16501;51.462;14.346;2023-05-09T06:49:22;100858.00;;;10.48;56.88
29569;BME280;16501;51.462;14.346;2023-05-09T06:51:47;100870.84;;;10.59;57.24
29569;BME280;16501;51.462;14.346;2023-05-09T06:54:12;100855.13;;;10.61;57.60
29569;BME280;16501;51.462;14.346;2023-05-09T06:56:37;100871.72;;;10.78;56.84
29569;BME280;16501;51.462;14.346;2023-05-09T06:59:03;100863.38;;;10.87;55.42
29569;BME280;16501;51.462;14.346;2023-05-09T07:01:28;100854.63;;;10.85;55.06
29569;BME280;16501;51.462;14.346;2023-05-09T07:03:53;100864.50;;;10.99;54.00
29569;BME280;16501;51.462;14.346;2023-05-09T07:06:19;100837.38;;;10.96;55.23
29569;BME280;16501;51.462;14.346;2023-05-09T07:08:44;100859.75;;;11.18;51.37
29569;BME280;16501;51.462;14.346;2023-05-09T07:11:09;100840.25;;;11.23;51.69
29569;BME280;16501;51.462;14.346;2023-05-09T07:13:35;100823.56;;;11.20;51.32
29569;BME280;16501;51.462;14.346;2023-05-09T07:16:00;100851.56;;;11.51;52.88
29569;BME280;16501;51.462;14.346;2023-05-09T07:18:25;100842.50;;;11.56;51.67
29569;BME280;16501;51.462;14.346;2023-05-09T07:20:51;100847.22;;;11.68;50.66
29569;BME280;16501;51.462;14.346;2023-05-09T07:23:16;100847.41;;;11.83;50.02
29569;BME280;16501;51.462;14.346;2023-05-09T07:25:41;100823.34;;;11.73;50.24
29569;BME280;16501;51.462;14.346;2023-05-09T07:28:07;100843.97;;;11.88;48.10
29569;BME280;16501;51.462;14.346;2023-05-09T07:30:33;100835.22;;;11.86;49.71
29569;BME280;16501;51.462;14.346;2023-05-09T07:32:58;100829.78;;;12.01;48.47
29569;BME280;16501;51.462;14.346;2023-05-09T07:35:23;100816.19;;;12.09;47.99
29569;BME280;16501;51.462;14.346;2023-05-09T07:37:48;100804.66;;;12.07;47.83
29569;BME280;16501;51.462;14.346;2023-05-09T07:40:14;100808.69;;;12.06;46.17
29569;BME280;16501;51.462;14.346;2023-05-09T07:42:39;100813.66;;;12.20;46.77
29569;BME280;16501;51.462;14.346;2023-05-09T07:45:05;100811.78;;;12.17;45.85
29569;BME280;16501;51.462;14.346;2023-05-09T07:47:31;100800.38;;;12.30;47.19
29569;BME280;16501;51.462;14.346;2023-05-09T07:49:56;100808.94;;;12.45;46.80
29569;BME280;16501;51.462;14.346;2023-05-09T07:52:22;100788.47;;;12.44;47.62
29569;BME280;16501;51.462;14.346;2023-05-09T07:54:47;100811.34;;;12.71;46.77
29569;BME280;16501;51.462;14.346;2023-05-09T07:57:12;100778.56;;;12.58;44.58
29569;BME280;16501;51.462;14.346;2023-05-09T07:59:38;100812.41;;;12.82;44.82
29569;BME280;16501;51.462;14.346;2023-05-09T08:02:03;100802.84;;;12.89;44.84
29569;BME280;16501;51.462;14.346;2023-05-09T08:04:28;100806.84;;;12.97;45.28
29569;BME280;16501;51.462;14.346;2023-05-09T08:06:53;100798.09;;;12.95;44.85
29569;BME280;16501;51.462;14.346;2023-05-09T08:09:19;100775.94;;;12.88;44.30
29569;BME280;16501;51.462;14.346;2023-05-09T08:11:45;100791.78;;;13.10;45.01
29569;BME280;16501;51.462;14.346;2023-05-09T08:14:10;100780.78;;;13.21;47.10
29569;BME280;16501;51.462;14.346;2023-05-09T08:16:36;100762.38;;;13.11;44.26
29569;BME280;16501;51.462;14.346;2023-05-09T08:19:01;100776.34;;;13.29;42.97
29569;BME280;16501;51.462;14.346;2023-05-09T08:21:27;100773.88;;;13.22;44.34
29569;BME280;16501;51.462;14.346;2023-05-09T08:23:52;100772.97;;;13.16;42.48
29569;BME280;16501;51.462;14.346;2023-05-09T08:26:17;100777.28;;;13.26;45.24
29569;BME280;16501;51.462;14.346;2023-05-09T08:28:43;100778.56;;;13.49;44.35
29569;BME280;16501;51.462;14.346;2023-05-09T08:31:08;100773.19;;;13.75;45.26
29569;BME280;16501;51.462;14.346;2023-05-09T08:33:33;100778.81;;;13.75;41.72
29569;BME280;16501;51.462;14.346;2023-05-09T08:35:59;100767.69;;;13.81;42.65
29569;BME280;16501;51.462;14.346;2023-05-09T08:38:24;100742.78;;;13.80;43.42
29569;BME280;16501;51.462;14.346;2023-05-09T08:40:50;100753.69;;;13.87;42.66
29569;BME280;16501;51.462;14.346;2023-05-09T08:43:15;100760.78;;;13.97;41.31
29569;BME280;16501;51.462;14.346;2023-05-09T08:45:51;100730.34;;;13.71;42.02
29569;BME280;16501;51.462;14.346;2023-05-09T08:48:27;100769.16;;;14.06;42.53
29569;BME280;16501;51.462;14.346;2023-05-09T08:50:54;100758.44;;;14.10;41.27
29569;BME280;16501;51.462;14.346;2023-05-09T08:53:19;100739.72;;;14.07;42.73
29569;BME280;16501;51.462;14.346;2023-05-09T08:55:46;100755.25;;;14.32;40.79
29569;BME280;16501;51.462;14.346;2023-05-09T08:58:12;100752.78;;;14.40;41.73
29569;BME280;16501;51.462;14.346;2023-05-09T09:00:38;100737.72;;;14.43;42.35
29569;BME280;16501;51.462;14.346;2023-05-09T09:03:05;100740.13;;;14.50;42.84
29569;BME280;16501;51.462;14.346;2023-05-09T09:05:36;100729.44;;;14.55;40.26
29569;BME280;16501;51.462;14.346;2023-05-09T09:08:03;100745.38;;;14.58;39.46
29569;BME280;16501;51.462;14.346;2023-05-09T09:10:31;100744.44;;;14.61;40.02
29569;BME280;16501;51.462;14.346;2023-05-09T09:12:58;100745.03;;;14.65;40.45
29569;BME280;16501;51.462;14.346;2023-05-09T09:15:25;100731.28;;;14.73;39.94
29569;BME280;16501;51.462;14.346;2023-05-09T09:17:53;100734.75;;;15.03;40.24
29569;BME280;16501;51.462;14.346;2023-05-09T09:20:21;100723.41;;;14.97;38.85
29569;BME280;16501;51.462;14.346;2023-05-09T09:22:48;100726.56;;;14.84;39.14
29569;BME280;16501;51.462;14.346;2023-05-09T09:25:16;100737.72;;;14.94;38.87
29569;BME280;16501;51.462;14.346;2023-05-09T09:27:41;100731.38;;;14.99;41.93
29569;BME280;16501;51.462;14.346;2023-05-09T09:30:08;100723.06;;;15.10;38.77
29569;BME280;16501;51.462;14.346;2023-05-09T09:32:34;100713.75;;;15.04;38.13
29569;BME280;16501;51.462;14.346;2023-05-09T09:35:07;100709.22;;;15.12;37.62
29569;BME280;16501;51.462;14.346;2023-05-09T09:37:34;100712.41;;;15.20;36.83
29569;BME280;16501;51.462;14.346;2023-05-09T09:39:59;100691.31;;;15.15;37.54
29569;BME280;16501;51.462;14.346;2023-05-09T09:42:24;100705.59;;;15.32;37.41
29569;BME280;16501;51.462;14.346;2023-05-09T09:44:55;100709.28;;;15.38;37.98
29569;BME280;16501;51.462;14.346;2023-05-09T09:47:30;100704.41;;;15.39;36.48
29569;BME280;16501;51.462;14.346;2023-05-09T09:49:55;100701.78;;;15.56;37.47
29569;BME280;16501;51.462;14.346;2023-05-09T09:52:23;100702.25;;;15.75;36.66
29569;BME280;16501;51.462;14.346;2023-05-09T09:54:49;100706.91;;;15.78;35.77
29569;BME280;16501;51.462;14.346;2023-05-09T09:57:32;100694.06;;;15.77;34.36
29569;BME280;16501;51.462;14.346;2023-05-09T09:59:59;100681.19;;;15.76;35.55
29569;BME280;16501;51.462;14.346;2023-05-09T10:02:24;100687.25;;;15.95;36.08
29569;BME280;16501;51.462;14.346;2023-05-09T10:04:49;100683.97;;;16.02;36.74
29569;BME280;16501;51.462;14.346;2023-05-09T10:07:15;100679.13;;;16.02;37.30
29569;BME280;16501;51.462;14.346;2023-05-09T10:09:43;100662.16;;;16.02;37.71
29569;BME280;16501;51.462;14.346;2023-05-09T10:12:09;100672.31;;;16.20;37.87
29569;BME280;16501;51.462;14.346;2023-05-09T10:14:35;100666.56;;;16.09;35.82
29569;BME280;16501;51.462;14.346;2023-05-09T10:17:03;100655.38;;;16.26;37.34
29569;BME280;16501;51.462;14.346;2023-05-09T10:19:29;100661.38;;;16.39;36.30
29569;BME280;16501;51.462;14.346;2023-05-09T10:22:07;100663.28;;;16.54;37.99
29569;BME280;16501;51.462;14.346;2023-05-09T10:24:39;100661.00;;;16.58;35.44
29569;BME280;16501;51.462;14.346;2023-05-09T10:27:08;100656.66;;;16.68;36.70
29569;BME280;16501;51.462;14.346;2023-05-09T10:29:35;100634.56;;;16.72;36.19
29569;BME280;16501;51.462;14.346;2023-05-09T10:32:07;100653.41;;;16.81;36.00
29569;BME280;16501;51.462;14.346;2023-05-09T10:34:37;100634.38;;;16.87;36.10
29569;BME280;16501;51.462;14.346;2023-05-09T10:37:04;100639.75;;;16.80;33.81
29569;BME280;16501;51.462;14.346;2023-05-09T10:39:30;100637.16;;;16.76;34.45
29569;BME280;16501;51.462;14.346;2023-05-09T10:41:57;100634.19;;;16.96;36.11
29569;BME280;16501;51.462;14.346;2023-05-09T10:44:26;100631.09;;;17.00;34.64
29569;BME280;16501;51.462;14.346;2023-05-09T10:46:51;100624.63;;;16.94;36.36
29569;BME280;16501;51.462;14.346;2023-05-09T10:49:17;100609.88;;;16.78;37.10
29569;BME280;16501;51.462;14.346;2023-05-09T10:51:43;100621.09;;;17.10;36.23
29569;BME280;16501;51.462;14.346;2023-05-09T10:54:13;100604.09;;;17.10;35.94
29569;BME280;16501;51.462;14.346;2023-05-09T10:56:39;100601.53;;;17.18;35.93
29569;BME280;16501;51.462;14.346;2023-05-09T10:59:05;100610.81;;;17.19;34.87
29569;BME280;16501;51.462;14.346;2023-05-09T11:01:32;100603.34;;;17.21;35.39
29569;BME280;16501;51.462;14.346;2023-05-09T11:03:59;100612.41;;;17.37;34.90
29569;BME280;16501;51.462;14.346;2023-05-09T11:06:47;100585.09;;;17.45;36.08
29569;BME280;16501;51.462;14.346;2023-05-09T11:11:53;100588.44;;;17.66;35.34
29569;BME280;16501;51.462;14.346;2023-05-09T11:14:37;100577.09;;;17.66;36.08
29569;BME280;16501;51.462;14.346;2023-05-09T11:19:42;100558.06;;;17.89;36.24
29569;BME280;16501;51.462;14.346;2023-05-09T11:24:48;100562.16;;;17.94;34.37
29569;BME280;16501;51.462;14.346;2023-05-09T11:27:21;100546.97;;;17.68;34.59
29569;BME280;16501;51.462;14.346;2023-05-09T11:29:53;100561.41;;;17.93;34.89
29569;BME280;16501;51.462;14.346;2023-05-09T11:32:20;100538.97;;;17.89;35.60
29569;BME280;16501;51.462;14.346;2023-05-09T11:34:45;100545.16;;;17.99;35.76
29569;BME280;16501;51.462;14.346;2023-05-09T11:37:13;100530.41;;;18.18;39.58
29569;BME280;16501;51.462;14.346;2023-05-09T11:40:00;100527.81;;;18.25;36.28
29569;BME280;16501;51.462;14.346;2023-05-09T11:42:27;100527.03;;;18.19;36.56
29569;BME280;16501;51.462;14.346;2023-05-09T11:44:53;100523.63;;;18.32;36.98
29569;BME280;16501;51.462;14.346;2023-05-09T11:47:19;100513.91;;;18.11;35.76
29569;BME280;16501;51.462;14.346;2023-05-09T11:49:47;100528.28;;;18.35;36.64
29569;BME280;16501;51.462;14.346;2023-05-09T11:52:12;100523.03;;;18.56;37.36
29569;BME280;16501;51.462;14.346;2023-05-09T11:54:38;100510.09;;;18.61;37.18
29569;BME280;16501;51.462;14.346;2023-05-09T11:57:04;100523.41;;;18.36;35.33
29569;BME280;16501;51.462;14.346;2023-05-09T11:59:30;100504.28;;;18.36;38.69
29569;BME280;16501;51.462;14.346;2023-05-09T12:01:55;100504.81;;;18.35;36.65
29569;BME280;16501;51.462;14.346;2023-05-09T12:04:20;100490.59;;;18.40;37.01
29569;BME280;16501;51.462;14.346;2023-05-09T12:06:46;100503.16;;;18.56;38.85
29569;BME280;16501;51.462;14.346;2023-05-09T12:09:12;100473.84;;;18.84;38.56
29569;BME280;16501;51.462;14.346;2023-05-09T12:11:46;100488.56;;;18.88;37.53
29569;BME280;16501;51.462;14.346;2023-05-09T12:14:25;100463.88;;;18.66;36.48
29569;BME280;16501;51.462;14.346;2023-05-09T12:16:50;100464.16;;;18.62;36.95
29569;BME280;16501;51.462;14.346;2023-05-09T12:19:17;100464.47;;;18.53;36.91
29569;BME280;16501;51.462;14.346;2023-05-09T12:21:42;100459.00;;;18.61;37.33
29569;BME280;16501;51.462;14.346;2023-05-09T12:24:07;100451.47;;;18.63;36.45
29569;BME280;16501;51.462;14.346;2023-05-09T12:26:33;100444.22;;;18.68;35.78
29569;BME280;16501;51.462;14.346;2023-05-09T12:28:58;100463.00;;;18.82;36.16
29569;BME280;16501;51.462;14.346;2023-05-09T12:31:24;100447.63;;;18.61;35.23
29569;BME280;16501;51.462;14.346;2023-05-09T12:33:49;100448.53;;;18.80;37.69
29569;BME280;16501;51.462;14.346;2023-05-09T12:36:15;100427.63;;;18.83;36.17
29569;BME280;16501;51.462;14.346;2023-05-09T12:38:51;100442.81;;;18.92;36.30
29569;BME280;16501;51.462;14.346;2023-05-09T12:41:16;100442.31;;;18.93;37.80
29569;BME280;16501;51.462;14.346;2023-05-09T12:43:47;100430.38;;;19.00;36.68
29569;BME280;16501;51.462;14.346;2023-05-09T12:46:17;100433.78;;;18.93;34.99
29569;BME280;16501;51.462;14.346;2023-05-09T12:48:42;100416.72;;;18.93;35.27
29569;BME280;16501;51.462;14.346;2023-05-09T12:51:08;100435.47;;;19.08;36.37
29569;BME280;16501;51.462;14.346;2023-05-09T12:53:38;100425.00;;;18.91;35.87
29569;BME280;16501;51.462;14.346;2023-05-09T12:56:10;100416.72;;;18.93;35.53